Time;durP1;ratioP1;P1;durP2;ratioP2;P2;SDS_P1;SDS_P2;PMS_P1;PMS_P2;Temp;Humidity;BMP_temperature;BMP_pressure;BME280_temperature;BME280_humidity;BME280_pressure;Samples;Min_cycle;Max_cycle;Signal;HPM_P1;HPM_P2
2023/09/19 00:00:26;;;;;;;1.70;1.55;;;;;;;;;;4996997;28;20048;-69
2023/09/19 00:02:59;;;;;;;2.25;1.30;;;;;;;;;;4997387;28;20319;-69
2023/09/19 00:05:27;;;;;;;3.30;1.70;;;;;;;;;;4998203;28;20517;-70
2023/09/19 00:07:54;;;;;;;4.63;2.00;;;;;;;;;;4997410;28;20040;-69
2023/09/19 00:10:24;;;;;;;4.97;1.60;;;;;;;;;;4996898;28;20136;-69
2023/09/19 00:12:52;;;;;;;1.60;1.50;;;;;;;;;;4996761;28;20040;-70
2023/09/19 00:15:17;;;;;;;2.67;1.70;;;;;;;;;;4997999;28;20041;-69
2023/09/19 00:17:43;;;;;;;3.38;1.70;;;;;;;;;;4996891;28;20391;-69
2023/09/19 00:20:12;;;;;;;2.08;1.15;;;;;;;;;;4997130;28;20045;-68
2023/09/19 00:22:44;;;;;;;2.45;1.58;;;;;;;;;;4996806;28;20124;-71
2023/09/19 00:25:11;;;;;;;1.55;1.45;;;;;;;;;;4997682;28;20076;-68
2023/09/19 00:27:43;;;;;;;2.17;1.80;;;;;;;;;;4997416;28;20632;-69
2023/09/19 00:30:30;;;;;;;2.08;1.35;;;;;;;;;;4997768;28;20529;-69
2023/09/19 00:32:56;;;;;;;3.65;1.60;;;;;;;;;;5009891;28;20188;-69
2023/09/19 00:35:24;;;;;;;2.22;1.35;;;;;;;;;;5012359;28;20128;-69
2023/09/19 00:37:51;;;;;;;4.35;1.50;;;;;;;;;;4996666;28;20042;-69
2023/09/19 00:40:17;;;;;;;2.15;1.45;;;;;;;;;;4996155;28;20079;-70
2023/09/19 00:42:43;;;;;;;2.85;1.30;;;;;;;;;;5011530;28;20054;-69
2023/09/19 00:45:11;;;;;;;1.73;1.48;;;;;;;;;;5012408;28;20085;-69
2023/09/19 00:47:40;;;;;;;3.05;1.25;;;;;;;;;;4995722;28;20074;-69
2023/09/19 00:50:08;;;;;;;1.52;1.42;;;;;;;;;;4996447;28;20064;-69
2023/09/19 00:52:38;;;;;;;1.55;1.20;;;;;;;;;;4996932;28;21076;-69
2023/09/19 00:55:08;;;;;;;2.83;1.20;;;;;;;;;;5011715;28;20061;-69
2023/09/19 00:57:34;;;;;;;2.92;1.30;;;;;;;;;;5012167;28;20459;-68
2023/09/19 01:00:05;;;;;;;4.88;1.40;;;;;;;;;;5011857;28;20050;-70
2023/09/19 01:02:31;;;;;;;1.30;1.20;;;;;;;;;;4996783;28;20552;-69
2023/09/19 01:04:57;;;;;;;1.95;1.25;;;;;;;;;;5011276;28;20042;-69
2023/09/19 01:07:24;;;;;;;1.95;1.35;;;;;;;;;;4997214;28;20556;-69
2023/09/19 01:09:50;;;;;;;2.10;1.55;;;;;;;;;;4997160;28;20045;-69
2023/09/19 01:12:23;;;;;;;1.58;1.35;;;;;;;;;;4996905;28;20548;-69
2023/09/19 01:15:00;;;;;;;2.75;1.55;;;;;;;;;;5012124;28;20066;-69
2023/09/19 01:17:46;;;;;;;3.22;1.30;;;;;;;;;;5010584;28;20050;-69
2023/09/19 01:20:23;;;;;;;1.52;1.40;;;;;;;;;;5009812;28;20092;-68
2023/09/19 01:23:01;;;;;;;4.60;1.80;;;;;;;;;;4961169;28;20045;-69
2023/09/19 01:25:44;;;;;;;3.17;1.80;;;;;;;;;;4995586;28;20061;-69
2023/09/19 01:28:54;;;;;;;7.93;2.10;;;;;;;;;;4995243;28;20129;-69
2023/09/19 01:31:21;;;;;;;3.80;2.00;;;;;;;;;;4985274;28;20100;-69
2023/09/19 01:34:00;;;;;;;5.20;1.80;;;;;;;;;;5000122;28;20034;-69
2023/09/19 01:36:30;;;;;;;5.43;2.05;;;;;;;;;;5014932;28;20041;-69
2023/09/19 01:39:05;;;;;;;3.35;2.00;;;;;;;;;;5014507;28;20056;-70
2023/09/19 01:42:00;;;;;;;1.60;1.50;;;;;;;;;;5000758;28;20106;-69
2023/09/19 01:44:40;;;;;;;1.35;1.25;;;;;;;;;;4999942;28;20049;-69
2023/09/19 01:47:18;;;;;;;1.33;1.23;;;;;;;;;;5000123;28;20075;-69
2023/09/19 01:49:54;;;;;;;2.85;1.60;;;;;;;;;;5014487;28;20113;-69
2023/09/19 01:52:21;;;;;;;3.33;1.40;;;;;;;;;;5014601;28;20498;-69
2023/09/19 01:54:55;;;;;;;1.77;1.58;;;;;;;;;;5015117;28;20045;-69
2023/09/19 01:57:29;;;;;;;3.20;1.90;;;;;;;;;;5014824;28;20054;-69
2023/09/19 02:00:06;;;;;;;2.10;1.70;;;;;;;;;;5013988;28;20069;-70
2023/09/19 02:02:41;;;;;;;2.38;1.80;;;;;;;;;;4999818;28;20054;-69
2023/09/19 02:05:07;;;;;;;3.28;1.60;;;;;;;;;;5014978;28;20099;-70
2023/09/19 02:07:33;;;;;;;2.55;1.30;;;;;;;;;;4998225;28;20046;-69
2023/09/19 02:10:00;;;;;;;1.65;1.10;;;;;;;;;;4998055;28;20129;-69
2023/09/19 02:12:26;;;;;;;2.42;1.40;;;;;;;;;;4998786;28;20419;-69
2023/09/19 02:14:51;;;;;;;5.63;1.45;;;;;;;;;;5014152;28;20073;-69
2023/09/19 02:17:17;;;;;;;5.22;1.30;;;;;;;;;;4998393;28;20057;-69
2023/09/19 02:19:42;;;;;;;2.40;1.20;;;;;;;;;;4998104;28;20129;-68
2023/09/19 02:22:10;;;;;;;2.38;1.15;;;;;;;;;;4997855;28;20502;-69
2023/09/19 02:24:38;;;;;;;3.60;0.98;;;;;;;;;;4998054;28;20104;-69
2023/09/19 02:27:04;;;;;;;1.10;1.00;;;;;;;;;;4997529;28;20046;-70
2023/09/19 02:29:31;;;;;;;1.90;1.20;;;;;;;;;;4998585;28;20057;-69
2023/09/19 02:31:57;;;;;;;0.80;0.80;;;;;;;;;;4981537;28;20049;-69
2023/09/19 02:34:22;;;;;;;1.23;0.90;;;;;;;;;;4998231;28;20049;-69
2023/09/19 02:36:48;;;;;;;1.25;0.95;;;;;;;;;;4998998;28;20046;-69
2023/09/19 02:39:15;;;;;;;3.00;0.90;;;;;;;;;;4998434;28;20703;-69
2023/09/19 02:41:41;;;;;;;2.80;0.88;;;;;;;;;;4997132;28;20045;-69
2023/09/19 02:44:07;;;;;;;2.97;0.93;;;;;;;;;;4997212;28;20116;-69
2023/09/19 02:46:35;;;;;;;0.65;0.60;;;;;;;;;;4999086;28;20042;-69
2023/09/19 02:49:06;;;;;;;1.27;0.88;;;;;;;;;;4997688;28;20050;-69
2023/09/19 02:51:32;;;;;;;2.35;0.88;;;;;;;;;;4999653;28;20052;-68
2023/09/19 02:53:59;;;;;;;4.57;0.90;;;;;;;;;;4997576;28;20394;-69
2023/09/19 02:56:25;;;;;;;1.27;0.95;;;;;;;;;;4996445;28;20052;-69
2023/09/19 02:58:51;;;;;;;1.77;0.70;;;;;;;;;;4997301;28;20050;-69
2023/09/19 03:01:19;;;;;;;0.75;0.75;;;;;;;;;;4997973;28;20083;-69
2023/09/19 03:03:44;;;;;;;1.02;0.77;;;;;;;;;;4997308;28;20514;-69
2023/09/19 03:06:10;;;;;;;1.70;1.10;;;;;;;;;;4996569;28;20077;-69
2023/09/19 03:08:37;;;;;;;3.80;0.95;;;;;;;;;;4998564;28;20050;-69
2023/09/19 03:11:09;;;;;;;0.77;0.70;;;;;;;;;;4997082;28;20049;-69
2023/09/19 03:13:37;;;;;;;2.20;1.00;;;;;;;;;;4997432;28;20069;-69
2023/09/19 03:16:05;;;;;;;0.90;0.90;;;;;;;;;;4996868;28;20406;-69
2023/09/19 03:18:34;;;;;;;1.45;0.70;;;;;;;;;;5012889;28;20054;-69
2023/09/19 03:21:00;;;;;;;1.30;0.90;;;;;;;;;;4997350;28;20585;-69
2023/09/19 03:23:27;;;;;;;1.85;1.08;;;;;;;;;;5014393;28;20037;-69
2023/09/19 03:25:53;;;;;;;1.30;0.90;;;;;;;;;;4996771;28;20050;-70
2023/09/19 03:28:20;;;;;;;1.25;0.82;;;;;;;;;;4996073;28;20041;-69
2023/09/19 03:30:46;;;;;;;1.05;0.80;;;;;;;;;;4996994;28;20042;-69
2023/09/19 03:33:12;;;;;;;3.13;0.80;;;;;;;;;;4997147;28;20108;-69
2023/09/19 03:35:39;;;;;;;3.67;1.10;;;;;;;;;;4996963;28;20042;-69
2023/09/19 03:38:05;;;;;;;3.03;1.10;;;;;;;;;;5012877;28;20065;-69
2023/09/19 03:40:31;;;;;;;1.30;0.90;;;;;;;;;;5009245;28;20074;-69
2023/09/19 03:42:56;;;;;;;1.13;0.80;;;;;;;;;;4996295;28;20054;-69
2023/09/19 03:45:21;;;;;;;0.77;0.60;;;;;;;;;;4998505;28;20041;-69
2023/09/19 03:47:50;;;;;;;2.13;0.90;;;;;;;;;;4996746;28;20430;-69
2023/09/19 03:50:18;;;;;;;1.70;0.98;;;;;;;;;;5011861;28;20119;-69
2023/09/19 03:52:44;;;;;;;2.47;1.25;;;;;;;;;;4998545;28;20053;-69
2023/09/19 03:55:10;;;;;;;1.35;1.00;;;;;;;;;;4996735;28;20096;-69
2023/09/19 03:57:37;;;;;;;1.17;0.88;;;;;;;;;;4997111;28;20042;-69
2023/09/19 04:00:05;;;;;;;1.92;1.08;;;;;;;;;;4995872;28;20542;-69
2023/09/19 04:02:39;;;;;;;0.90;0.90;;;;;;;;;;4997677;28;20045;-69
2023/09/19 04:05:05;;;;;;;3.03;1.52;;;;;;;;;;4996070;28;20638;-69
2023/09/19 04:07:30;;;;;;;2.85;1.02;;;;;;;;;;4996399;28;20136;-68
2023/09/19 04:09:56;;;;;;;2.90;0.90;;;;;;;;;;4997569;28;20107;-69
2023/09/19 04:12:22;;;;;;;1.40;0.88;;;;;;;;;;4995417;28;20415;-70
2023/09/19 04:14:48;;;;;;;3.13;0.95;;;;;;;;;;4996521;28;20121;-69
2023/09/19 04:17:13;;;;;;;1.23;0.90;;;;;;;;;;4995971;28;20056;-69
2023/09/19 04:19:40;;;;;;;1.65;1.00;;;;;;;;;;5013090;28;20045;-70
2023/09/19 04:22:06;;;;;;;1.75;1.00;;;;;;;;;;4995867;28;20046;-71
2023/09/19 04:24:32;;;;;;;1.33;0.80;;;;;;;;;;5011609;28;20037;-69
2023/09/19 04:26:59;;;;;;;3.05;0.80;;;;;;;;;;4995723;28;20168;-69
2023/09/19 04:29:26;;;;;;;3.42;1.20;;;;;;;;;;4996223;28;20474;-71
2023/09/19 04:31:52;;;;;;;1.38;1.00;;;;;;;;;;4994981;28;20050;-70
2023/09/19 04:34:17;;;;;;;2.88;1.00;;;;;;;;;;4996506;28;20487;-70
2023/09/19 04:36:43;;;;;;;0.90;0.68;;;;;;;;;;4997106;28;20100;-69
2023/09/19 04:39:10;;;;;;;1.55;0.90;;;;;;;;;;4996128;28;20042;-69
2023/09/19 04:41:38;;;;;;;0.93;0.80;;;;;;;;;;4995326;28;20048;-69
2023/09/19 04:44:05;;;;;;;1.95;1.15;;;;;;;;;;4996073;28;20146;-69
2023/09/19 04:46:30;;;;;;;4.45;0.88;;;;;;;;;;5010237;28;20578;-69
2023/09/19 04:48:56;;;;;;;0.90;0.90;;;;;;;;;;4996259;28;20685;-69
2023/09/19 04:51:21;;;;;;;5.07;0.90;;;;;;;;;;4996942;28;20038;-69
2023/09/19 04:53:47;;;;;;;2.10;1.00;;;;;;;;;;4997726;28;20050;-68
2023/09/19 04:56:13;;;;;;;5.70;1.17;;;;;;;;;;4996372;28;20108;-69
2023/09/19 04:58:39;;;;;;;2.25;1.10;;;;;;;;;;4997018;28;20057;-69
2023/09/19 05:01:05;;;;;;;2.30;1.10;;;;;;;;;;4995942;28;20860;-70
2023/09/19 05:03:31;;;;;;;1.42;0.70;;;;;;;;;;4997475;28;20701;-69
2023/09/19 05:05:56;;;;;;;6.38;1.10;;;;;;;;;;4997905;28;20050;-69
2023/09/19 05:08:22;;;;;;;1.05;0.98;;;;;;;;;;4999592;28;20149;-69
2023/09/19 05:10:48;;;;;;;0.80;0.80;;;;;;;;;;5000361;28;20057;-68
2023/09/19 05:13:14;;;;;;;1.00;1.00;;;;;;;;;;5000354;28;20414;-68
2023/09/19 05:15:40;;;;;;;0.95;0.90;;;;;;;;;;4998480;28;20046;-69
2023/09/19 05:18:06;;;;;;;0.80;0.80;;;;;;;;;;4999084;28;20568;-69
2023/09/19 05:20:37;;;;;;;2.85;1.00;;;;;;;;;;4999892;28;20112;-69
2023/09/19 05:23:08;;;;;;;2.67;1.10;;;;;;;;;;5000150;28;20141;-69
2023/09/19 05:25:37;;;;;;;2.20;0.93;;;;;;;;;;4999943;28;20045;-69
2023/09/19 05:28:05;;;;;;;0.77;0.68;;;;;;;;;;4996735;28;20064;-69
2023/09/19 05:30:32;;;;;;;2.75;0.93;;;;;;;;;;4996770;28;20045;-69
2023/09/19 05:32:57;;;;;;;3.72;1.00;;;;;;;;;;4997475;28;20865;-69
2023/09/19 05:35:23;;;;;;;1.38;0.88;;;;;;;;;;4997717;28;20046;-69
2023/09/19 05:37:54;;;;;;;1.58;0.93;;;;;;;;;;4997197;28;20092;-69
2023/09/19 05:40:20;;;;;;;1.05;0.80;;;;;;;;;;4993555;28;20061;-69
2023/09/19 05:42:46;;;;;;;1.50;0.68;;;;;;;;;;4998954;28;20056;-69
2023/09/19 05:45:13;;;;;;;1.75;0.90;;;;;;;;;;4998724;28;20600;-69
2023/09/19 05:47:44;;;;;;;0.63;0.63;;;;;;;;;;4998436;28;20037;-68
2023/09/19 05:50:10;;;;;;;2.97;0.80;;;;;;;;;;4998743;28;20033;-69
2023/09/19 05:52:37;;;;;;;2.47;0.90;;;;;;;;;;4999294;28;20044;-69
2023/09/19 05:55:06;;;;;;;0.80;0.80;;;;;;;;;;4999047;28;20042;-69
2023/09/19 05:57:32;;;;;;;1.05;0.90;;;;;;;;;;4999291;28;20116;-69
2023/09/19 05:59:58;;;;;;;2.15;0.80;;;;;;;;;;4998058;28;20426;-69
2023/09/19 06:02:23;;;;;;;0.90;0.90;;;;;;;;;;5013238;28;20129;-71
2023/09/19 06:04:49;;;;;;;1.17;0.80;;;;;;;;;;5001152;28;20446;-69
2023/09/19 06:07:16;;;;;;;0.90;0.85;;;;;;;;;;5002042;28;20049;-69
2023/09/19 06:09:41;;;;;;;0.90;0.73;;;;;;;;;;5002298;28;20033;-69
2023/09/19 06:12:07;;;;;;;4.88;0.82;;;;;;;;;;5000595;28;20041;-69
2023/09/19 06:14:33;;;;;;;1.55;0.70;;;;;;;;;;4999721;28;20045;-69
2023/09/19 06:16:58;;;;;;;1.33;0.80;;;;;;;;;;5013042;28;20617;-69
2023/09/19 06:19:25;;;;;;;1.05;0.80;;;;;;;;;;4999786;28;20048;-71
2023/09/19 06:21:53;;;;;;;0.80;0.80;;;;;;;;;;4994903;28;20045;-75
2023/09/19 06:24:19;;;;;;;0.70;0.70;;;;;;;;;;4995280;28;20054;-73
2023/09/19 06:26:45;;;;;;;0.73;0.70;;;;;;;;;;4999379;28;20049;-74
2023/09/19 06:29:10;;;;;;;2.05;0.68;;;;;;;;;;5013785;28;20092;-74
2023/09/19 06:31:38;;;;;;;3.10;0.73;;;;;;;;;;4998917;28;20045;-74
2023/09/19 06:34:04;;;;;;;1.70;0.70;;;;;;;;;;4997323;28;20502;-75
2023/09/19 06:36:29;;;;;;;1.20;1.10;;;;;;;;;;4998580;28;20080;-75
2023/09/19 06:38:55;;;;;;;1.45;0.88;;;;;;;;;;4997031;28;20403;-74
2023/09/19 06:41:24;;;;;;;0.77;0.77;;;;;;;;;;4998839;28;20132;-72
2023/09/19 06:43:52;;;;;;;1.00;0.70;;;;;;;;;;5014572;28;20663;-72
2023/09/19 06:46:18;;;;;;;0.60;0.60;;;;;;;;;;4996637;28;20048;-73
2023/09/19 06:48:44;;;;;;;0.85;0.60;;;;;;;;;;4999701;28;20449;-73
2023/09/19 06:51:09;;;;;;;1.55;0.75;;;;;;;;;;4998875;28;20054;-71
2023/09/19 06:53:35;;;;;;;1.48;0.70;;;;;;;;;;4999201;28;20060;-72
2023/09/19 06:56:02;;;;;;;0.63;0.60;;;;;;;;;;4994224;28;20499;-70
2023/09/19 06:58:28;;;;;;;0.93;0.70;;;;;;;;;;4991230;28;20054;-71
2023/09/19 07:00:54;;;;;;;0.68;0.68;;;;;;;;;;4997725;28;20052;-71
2023/09/19 07:03:21;;;;;;;1.65;0.55;;;;;;;;;;4999059;28;21443;-71
2023/09/19 07:05:48;;;;;;;1.15;0.60;;;;;;;;;;4998712;28;20045;-71
2023/09/19 07:08:15;;;;;;;1.10;0.60;;;;;;;;;;4998117;28;20141;-72
2023/09/19 07:10:43;;;;;;;0.60;0.60;;;;;;;;;;4998692;28;20140;-71
2023/09/19 07:13:10;;;;;;;0.88;0.50;;;;;;;;;;4998599;28;20474;-72
2023/09/19 07:15:38;;;;;;;0.60;0.55;;;;;;;;;;4999082;28;20041;-71
2023/09/19 07:18:05;;;;;;;5.63;0.60;;;;;;;;;;4998347;28;20050;-73
2023/09/19 07:20:32;;;;;;;0.70;0.60;;;;;;;;;;4997573;28;20048;-71
2023/09/19 07:23:01;;;;;;;0.80;0.70;;;;;;;;;;4980892;28;20052;-72
2023/09/19 07:25:30;;;;;;;1.40;0.70;;;;;;;;;;5013450;28;20121;-73
2023/09/19 07:27:59;;;;;;;0.82;0.60;;;;;;;;;;4998254;28;20064;-74
2023/09/19 07:30:26;;;;;;;0.85;0.70;;;;;;;;;;4997064;28;20041;-74
2023/09/19 07:32:52;;;;;;;1.17;0.70;;;;;;;;;;4998638;28;20123;-71
2023/09/19 07:35:19;;;;;;;0.82;0.70;;;;;;;;;;4996598;28;20050;-71
2023/09/19 07:37:49;;;;;;;0.88;0.52;;;;;;;;;;4998762;28;20045;-73
2023/09/19 07:40:18;;;;;;;1.60;0.70;;;;;;;;;;4997766;28;20042;-74
2023/09/19 07:42:46;;;;;;;0.60;0.60;;;;;;;;;;4998403;28;20196;-72
2023/09/19 07:45:14;;;;;;;1.20;0.75;;;;;;;;;;4995989;28;20041;-72
2023/09/19 07:47:44;;;;;;;1.08;0.50;;;;;;;;;;4997616;28;20183;-75
2023/09/19 07:50:11;;;;;;;1.35;0.52;;;;;;;;;;4997001;28;20049;-76
2023/09/19 07:52:39;;;;;;;1.85;0.52;;;;;;;;;;4996748;28;20049;-74
2023/09/19 07:55:08;;;;;;;2.05;0.65;;;;;;;;;;4995183;28;20136;-72
2023/09/19 07:57:35;;;;;;;1.95;0.57;;;;;;;;;;4997635;28;20046;-75
2023/09/19 08:00:00;;;;;;;1.10;0.65;;;;;;;;;;5012894;28;20461;-74
2023/09/19 08:02:28;;;;;;;0.82;0.60;;;;;;;;;;4995627;28;20046;-72
2023/09/19 08:04:53;;;;;;;0.82;0.50;;;;;;;;;;4997893;28;20081;-71
2023/09/19 08:07:19;;;;;;;1.98;0.65;;;;;;;;;;4995819;28;20416;-71
2023/09/19 08:09:46;;;;;;;2.47;0.63;;;;;;;;;;4997289;28;20046;-73
2023/09/19 08:12:12;;;;;;;0.60;0.60;;;;;;;;;;4997182;28;20049;-72
2023/09/19 08:14:37;;;;;;;1.17;0.60;;;;;;;;;;4995827;28;20144;-72
2023/09/19 08:17:07;;;;;;;0.82;0.60;;;;;;;;;;5012345;28;20152;-73
2023/09/19 08:19:33;;;;;;;2.38;0.57;;;;;;;;;;5011371;28;20041;-73
2023/09/19 08:21:59;;;;;;;0.60;0.55;;;;;;;;;;4997994;28;20089;-73
2023/09/19 08:24:28;;;;;;;0.50;0.50;;;;;;;;;;4995741;28;20867;-73
2023/09/19 08:26:54;;;;;;;2.00;0.85;;;;;;;;;;4996448;28;20072;-73
2023/09/19 08:29:20;;;;;;;0.30;0.28;;;;;;;;;;4997423;28;20052;-72
2023/09/19 08:31:49;;;;;;;1.85;0.60;;;;;;;;;;4997462;28;20042;-72
2023/09/19 08:34:15;;;;;;;0.90;0.60;;;;;;;;;;4995250;28;20057;-72
2023/09/19 08:36:43;;;;;;;1.45;0.82;;;;;;;;;;4996612;28;20053;-73
2023/09/19 08:39:08;;;;;;;0.90;0.60;;;;;;;;;;4997536;28;20128;-72
2023/09/19 08:41:34;;;;;;;1.55;0.60;;;;;;;;;;5000901;28;20123;-73
2023/09/19 08:44:01;;;;;;;1.00;0.60;;;;;;;;;;5000404;28;20049;-72
2023/09/19 08:46:30;;;;;;;0.95;0.57;;;;;;;;;;5015227;28;20056;-71
2023/09/19 08:49:04;;;;;;;2.15;0.60;;;;;;;;;;5001421;28;20541;-72
2023/09/19 08:51:39;;;;;;;2.58;0.50;;;;;;;;;;5016147;28;20045;-73
2023/09/19 08:54:07;;;;;;;3.33;0.60;;;;;;;;;;4998875;28;20060;-74
2023/09/19 08:56:33;;;;;;;0.70;0.70;;;;;;;;;;5014905;28;20050;-74
2023/09/19 08:59:09;;;;;;;0.55;0.55;;;;;;;;;;4998792;28;20099;-75
2023/09/19 09:01:35;;;;;;;2.78;0.65;;;;;;;;;;5001255;28;20076;-75
2023/09/19 09:04:01;;;;;;;0.55;0.55;;;;;;;;;;5000747;28;20046;-75
2023/09/19 09:06:28;;;;;;;1.05;0.68;;;;;;;;;;5000383;28;21896;-73
2023/09/19 09:08:54;;;;;;;0.70;0.60;;;;;;;;;;4999986;28;20058;-73
2023/09/19 09:11:20;;;;;;;2.42;0.60;;;;;;;;;;4999431;28;20045;-75
2023/09/19 09:13:46;;;;;;;0.73;0.57;;;;;;;;;;5015903;28;20337;-75
2023/09/19 09:16:12;;;;;;;0.52;0.50;;;;;;;;;;4983180;28;20048;-73
2023/09/19 09:18:38;;;;;;;0.50;0.50;;;;;;;;;;5000441;28;20137;-73
2023/09/19 09:21:04;;;;;;;0.98;0.60;;;;;;;;;;4998989;28;20137;-74
2023/09/19 09:23:32;;;;;;;0.70;0.60;;;;;;;;;;4999059;28;20112;-75
2023/09/19 09:26:01;;;;;;;1.70;0.80;;;;;;;;;;5000004;28;20053;-75
2023/09/19 09:28:28;;;;;;;1.85;1.00;;;;;;;;;;5014608;28;20058;-74
2023/09/19 09:30:55;;;;;;;0.75;0.60;;;;;;;;;;5000089;28;20499;-73
2023/09/19 09:33:21;;;;;;;4.38;1.08;;;;;;;;;;5000401;28;20387;-73
2023/09/19 09:35:56;;;;;;;3.20;0.68;;;;;;;;;;5000308;28;20125;-74
2023/09/19 09:38:32;;;;;;;0.85;0.45;;;;;;;;;;4997899;28;20050;-73
2023/09/19 09:41:06;;;;;;;0.65;0.60;;;;;;;;;;5000114;28;20042;-73
2023/09/19 09:43:38;;;;;;;1.67;0.70;;;;;;;;;;5000441;28;20053;-75
2023/09/19 09:49:14;;;;;;;0.63;0.60;;;;;;;;;;5001496;28;20435;-74
2023/09/19 09:51:39;;;;;;;0.70;0.70;;;;;;;;;;5001722;28;20554;-75
2023/09/19 09:54:16;;;;;;;0.65;0.47;;;;;;;;;;5016842;28;20466;-74
2023/09/19 09:57:01;;;;;;;0.57;0.57;;;;;;;;;;4998644;28;20057;-73
2023/09/19 09:59:59;;;;;;;1.05;0.65;;;;;;;;;;4999081;28;20072;-73
2023/09/19 10:02:29;;;;;;;0.50;0.50;;;;;;;;;;4998147;28;20042;-74
2023/09/19 10:05:40;;;;;;;1.05;0.63;;;;;;;;;;4997880;28;20073;-75
2023/09/19 10:07:52;;;;;;;1.00;0.60;;;;;;;;;;5011778;28;20537;-73
2023/09/19 10:10:45;;;;;;;0.68;0.65;;;;;;;;;;4999554;28;20077;-71
2023/09/19 10:13:13;;;;;;;1.38;0.63;;;;;;;;;;4983815;28;20494;-75
2023/09/19 10:15:42;;;;;;;3.30;0.75;;;;;;;;;;5012761;28;20071;-73
2023/09/19 10:18:11;;;;;;;1.25;0.80;;;;;;;;;;4998670;28;20038;-74
2023/09/19 10:20:41;;;;;;;3.17;0.65;;;;;;;;;;4997177;28;20050;-73
2023/09/19 10:23:12;;;;;;;0.50;0.50;;;;;;;;;;5014556;28;20076;-72
2023/09/19 10:25:42;;;;;;;0.73;0.60;;;;;;;;;;4996339;28;20049;-72
2023/09/19 10:28:13;;;;;;;1.40;0.50;;;;;;;;;;5014238;28;20738;-73
2023/09/19 10:30:47;;;;;;;1.42;0.75;;;;;;;;;;5014119;28;20254;-72
2023/09/19 10:33:17;;;;;;;0.73;0.68;;;;;;;;;;4999543;28;20050;-72
2023/09/19 10:35:45;;;;;;;0.70;0.65;;;;;;;;;;5014052;28;20038;-72
2023/09/19 10:38:11;;;;;;;1.05;0.60;;;;;;;;;;4998677;28;20104;-73
2023/09/19 10:40:45;;;;;;;3.10;0.70;;;;;;;;;;4996711;28;20045;-73
2023/09/19 10:43:26;;;;;;;0.82;0.73;;;;;;;;;;4997483;28;20065;-74
2023/09/19 10:45:53;;;;;;;1.98;0.52;;;;;;;;;;4997913;28;20041;-73
2023/09/19 10:48:20;;;;;;;0.50;0.50;;;;;;;;;;4995283;28;20125;-76
2023/09/19 10:50:52;;;;;;;1.15;0.82;;;;;;;;;;4997091;28;20049;-72
2023/09/19 10:53:19;;;;;;;3.15;0.85;;;;;;;;;;4998565;28;20054;-74
2023/09/19 10:55:51;;;;;;;1.02;0.80;;;;;;;;;;5013784;28;20442;-76
2023/09/19 10:58:34;;;;;;;1.75;0.90;;;;;;;;;;4996452;28;20046;-72
2023/09/19 11:01:05;;;;;;;1.40;0.70;;;;;;;;;;4981119;28;20076;-74
2023/09/19 11:03:32;;;;;;;0.98;0.65;;;;;;;;;;4997671;28;20045;-74
2023/09/19 11:06:01;;;;;;;2.40;0.73;;;;;;;;;;5013630;28;20046;-75
2023/09/19 11:08:27;;;;;;;0.70;0.70;;;;;;;;;;4981708;28;20053;-74
2023/09/19 11:10:52;;;;;;;0.93;0.80;;;;;;;;;;4997474;28;20089;-77
2023/09/19 11:13:38;;;;;;;0.90;0.70;;;;;;;;;;5016159;28;20049;-75
2023/09/19 11:16:04;;;;;;;0.77;0.60;;;;;;;;;;4998914;28;20050;-74
2023/09/19 11:18:42;;;;;;;1.05;0.80;;;;;;;;;;4995608;28;20141;-76
2023/09/19 11:21:32;;;;;;;0.70;0.70;;;;;;;;;;4997081;28;20052;-74
2023/09/19 11:24:24;;;;;;;0.60;0.50;;;;;;;;;;4997458;28;20111;-73
2023/09/19 11:26:51;;;;;;;2.67;0.80;;;;;;;;;;4995300;28;20069;-74
2023/09/19 11:29:28;;;;;;;1.48;0.65;;;;;;;;;;4997075;28;20048;-75
2023/09/19 11:31:59;;;;;;;1.48;0.82;;;;;;;;;;5011002;28;20168;-74
2023/09/19 11:34:37;;;;;;;0.70;0.70;;;;;;;;;;4992702;28;20097;-74
2023/09/19 11:37:23;;;;;;;2.15;0.75;;;;;;;;;;4995797;28;20171;-74
2023/09/19 11:40:16;;;;;;;1.98;0.75;;;;;;;;;;4996386;28;20863;-72
2023/09/19 11:42:45;;;;;;;1.17;0.65;;;;;;;;;;4995874;28;20062;-73
2023/09/19 11:45:56;;;;;;;3.40;0.75;;;;;;;;;;4993022;28;20038;-73
2023/09/19 11:48:25;;;;;;;1.38;0.60;;;;;;;;;;4996549;28;20050;-74
2023/09/19 11:50:52;;;;;;;0.77;0.77;;;;;;;;;;4997364;28;20050;-72
2023/09/19 11:53:19;;;;;;;1.70;0.80;;;;;;;;;;4996601;28;20061;-74
2023/09/19 11:55:45;;;;;;;0.60;0.60;;;;;;;;;;5012964;28;20101;-75
2023/09/19 11:58:14;;;;;;;2.40;0.55;;;;;;;;;;5012774;28;20169;-73
2023/09/19 12:00:43;;;;;;;0.68;0.63;;;;;;;;;;4996042;28;20045;-73
2023/09/19 12:03:11;;;;;;;0.60;0.60;;;;;;;;;;4998433;28;20233;-73
2023/09/19 12:05:37;;;;;;;0.80;0.40;;;;;;;;;;4996319;28;20045;-72
2023/09/19 12:08:07;;;;;;;1.75;0.60;;;;;;;;;;4997947;28;20046;-74
2023/09/19 12:10:33;;;;;;;0.68;0.52;;;;;;;;;;4996864;28;20056;-74
2023/09/19 12:12:59;;;;;;;1.15;0.70;;;;;;;;;;4997949;28;20058;-73
2023/09/19 12:15:34;;;;;;;0.50;0.50;;;;;;;;;;4996307;28;20061;-73
2023/09/19 12:18:00;;;;;;;0.73;0.60;;;;;;;;;;4997367;28;20237;-73
2023/09/19 12:20:46;;;;;;;0.60;0.40;;;;;;;;;;4997424;28;20544;-73
2023/09/19 12:23:15;;;;;;;0.45;0.40;;;;;;;;;;4997547;28;20076;-74
2023/09/19 12:25:47;;;;;;;0.52;0.50;;;;;;;;;;4997315;28;20072;-74
2023/09/19 12:28:13;;;;;;;0.40;0.40;;;;;;;;;;5013414;28;20038;-74
2023/09/19 12:30:41;;;;;;;2.05;0.50;;;;;;;;;;5011640;28;20052;-74
2023/09/19 12:33:20;;;;;;;0.85;0.40;;;;;;;;;;4997854;28;20148;-73
2023/09/19 12:35:47;;;;;;;1.25;0.70;;;;;;;;;;4997342;28;20038;-72
2023/09/19 12:38:28;;;;;;;0.50;0.50;;;;;;;;;;5012153;28;20053;-73
2023/09/19 12:40:56;;;;;;;0.47;0.47;;;;;;;;;;4947921;28;20108;-72
2023/09/19 12:43:22;;;;;;;0.65;0.43;;;;;;;;;;4996359;28;20430;-74
2023/09/19 12:45:48;;;;;;;1.52;0.40;;;;;;;;;;4995844;28;20049;-73
2023/09/19 12:48:34;;;;;;;1.85;0.55;;;;;;;;;;4995494;28;20042;-72
2023/09/19 12:51:07;;;;;;;0.55;0.47;;;;;;;;;;4992288;28;20045;-73
2023/09/19 12:53:42;;;;;;;0.73;0.43;;;;;;;;;;4994918;28;20067;-72
2023/09/19 12:56:13;;;;;;;0.60;0.60;;;;;;;;;;4997149;28;20046;-74
2023/09/19 12:58:55;;;;;;;;;;;;;;;;;;4995524;28;21074;-74
2023/09/19 13:01:22;;;;;;;2.47;0.60;;;;;;;;;;4995019;28;19936;-74
2023/09/19 13:04:26;;;;;;;1.70;0.55;;;;;;;;;;4996733;28;20050;-75
2023/09/19 13:06:52;;;;;;;0.50;0.50;;;;;;;;;;4978502;28;20100;-75
2023/09/19 13:09:24;;;;;;;1.38;0.60;;;;;;;;;;4979328;28;20164;-73
2023/09/19 13:11:50;;;;;;;2.40;0.60;;;;;;;;;;4996285;28;20046;-73
2023/09/19 13:14:28;;;;;;;0.93;0.50;;;;;;;;;;4979058;28;20046;-74
2023/09/19 13:16:58;;;;;;;2.80;0.50;;;;;;;;;;4995821;28;20058;-74
2023/09/19 13:19:54;;;;;;;0.50;0.50;;;;;;;;;;4978901;28;20112;-74
2023/09/19 13:22:39;;;;;;;5.30;0.70;;;;;;;;;;4995430;28;20061;-75
2023/09/19 13:25:07;;;;;;;4.30;0.80;;;;;;;;;;4981816;28;20058;-73
2023/09/19 13:27:32;;;;;;;5.45;0.80;;;;;;;;;;5000310;28;20449;-73
2023/09/19 13:29:58;;;;;;;1.73;0.52;;;;;;;;;;5004672;28;20811;-75
2023/09/19 13:32:24;;;;;;;2.05;0.40;;;;;;;;;;4997385;28;20054;-74
2023/09/19 13:34:51;;;;;;;5.55;0.60;;;;;;;;;;5001698;28;20056;-76
2023/09/19 13:37:17;;;;;;;1.77;0.60;;;;;;;;;;5001888;28;20114;-75
2023/09/19 13:39:47;;;;;;;0.70;0.55;;;;;;;;;;5001419;28;20050;-74
2023/09/19 13:42:13;;;;;;;2.05;0.50;;;;;;;;;;5015754;28;20096;-72
2023/09/19 13:44:39;;;;;;;0.40;0.40;;;;;;;;;;4998723;28;20448;-74
2023/09/19 13:47:09;;;;;;;0.73;0.57;;;;;;;;;;4998432;28;20054;-73
2023/09/19 13:49:35;;;;;;;0.80;0.60;;;;;;;;;;5000150;28;20053;-74
2023/09/19 13:52:03;;;;;;;0.63;0.60;;;;;;;;;;4999552;28;20041;-75
2023/09/19 13:54:29;;;;;;;1.88;0.38;;;;;;;;;;4997740;28;20125;-72
2023/09/19 13:56:55;;;;;;;0.38;0.38;;;;;;;;;;4998525;28;20100;-73
2023/09/19 13:59:23;;;;;;;4.05;0.60;;;;;;;;;;4998652;28;20058;-74
2023/09/19 14:01:53;;;;;;;1.95;0.50;;;;;;;;;;4998955;28;20566;-75
2023/09/19 14:04:20;;;;;;;0.55;0.52;;;;;;;;;;4997068;28;20064;-73
2023/09/19 14:06:46;;;;;;;1.55;0.60;;;;;;;;;;4997053;28;20526;-73
2023/09/19 14:09:13;;;;;;;0.60;0.57;;;;;;;;;;4995824;28;20658;-73
2023/09/19 14:11:38;;;;;;;1.02;0.30;;;;;;;;;;5011008;28;20050;-72
2023/09/19 14:14:04;;;;;;;1.80;0.60;;;;;;;;;;5013578;28;20064;-73
2023/09/19 14:16:30;;;;;;;0.70;0.63;;;;;;;;;;4979193;28;20064;-71
2023/09/19 14:18:57;;;;;;;0.60;0.60;;;;;;;;;;4999192;28;20081;-73
2023/09/19 14:21:23;;;;;;;1.67;0.57;;;;;;;;;;4997161;28;20071;-72
2023/09/19 14:23:49;;;;;;;0.43;0.43;;;;;;;;;;4998257;28;20048;-72
2023/09/19 14:26:16;;;;;;;1.17;0.70;;;;;;;;;;5000054;28;20133;-70
2023/09/19 14:28:42;;;;;;;0.95;0.50;;;;;;;;;;4998089;28;20096;-69
2023/09/19 14:31:08;;;;;;;1.48;0.60;;;;;;;;;;4999685;28;20143;-70
2023/09/19 14:33:35;;;;;;;0.55;0.50;;;;;;;;;;4999151;28;20073;-71
2023/09/19 14:36:06;;;;;;;0.57;0.50;;;;;;;;;;4999787;28;20046;-73
2023/09/19 14:38:33;;;;;;;0.75;0.55;;;;;;;;;;4995039;28;20149;-71
2023/09/19 14:41:02;;;;;;;3.53;0.55;;;;;;;;;;4999734;28;20104;-72
2023/09/19 14:43:32;;;;;;;0.68;0.50;;;;;;;;;;4998732;28;20153;-72
2023/09/19 14:46:02;;;;;;;0.35;0.35;;;;;;;;;;5014486;28;20546;-72
2023/09/19 14:48:30;;;;;;;1.67;0.68;;;;;;;;;;5000682;28;20037;-72
2023/09/19 14:51:04;;;;;;;0.35;0.35;;;;;;;;;;5003661;28;20046;-71
2023/09/19 14:53:31;;;;;;;0.93;0.40;;;;;;;;;;5000553;28;20140;-72
2023/09/19 14:55:59;;;;;;;0.88;0.60;;;;;;;;;;5000103;28;20141;-72
2023/09/19 14:58:26;;;;;;;0.52;0.47;;;;;;;;;;4998873;28;20053;-70